Main page
METAR-TAF:

METAR-TAF

Airports :

Cognac, France

Cognac – Châteaubernard Air Base

latitude: 45-40N, longitude: 000-19W, elevation: 30 m

Current weather observation

The report was made 15 minutes ago, at 07:00 UTC
Wind 2 kt from variable directions
Temperature 5°C
Humidity 100%
Pressure 1025 hPa
Visibility: 5000 m
light rain, mist

METAR: LFBG 180700Z AUTO VRB02KT 5000 -RA BR SCT032/// BKN039/// BKN049/// ///TCU 05/05 Q1025

Time: 08:15 (07:15 UTC)

Forecast

The report was made 17 hours and 15 minutes ago, at 14:00 UTC
Forecast valid from 16 at 15 UTC to 17 at 15 UTC
Wind 10 kt from the Northeast
Visibility 10 km or more
Overcast at a height of 1500 ft
Temporary
from 16 at 15 UTC to 16 at 18 UTC
Visibility: 4000 m
light rain
Becoming
from 16 at 18 UTC to 16 at 20 UTC
Visibility: 4000 m
Broken clouds at a height of 400 ft
light rain, drizzle

TAF: LFBG 161400Z 1615/1715 04010KT 9999 OVC015 TEMPO 1615/1618 4000 -RA BECMG 1618/1620 4000 -RADZ BKN004

Weather observations and forecasts of more than 4000 airports (METAR and TAF reports).

The available stations are represented by yellow and red dots on the map.

Hover mouse over dot to see the name of the station.

Then click to see weather observations and forecasts.

To change the map : click on the green buttons with a black cross to zoom in, on the green button with a dash to zoom out, or on the green arrows for adjacent maps.


METAR-TAF: